sensor_id;sensor_type;location;lat;lon;timestamp;pressure;altitude;pressure_sealevel;temperature;humidity
75717;BME280;64333;50.138;14.332;2022-11-02T00:00:32;98614.56;;;7.87;100.00
75717;BME280;64333;50.138;14.332;2022-11-02T00:02:58;98619.84;;;7.82;100.00
75717;BME280;64333;50.138;14.332;2022-11-02T00:05:23;98614.41;;;7.62;100.00
75717;BME280;64333;50.138;14.332;2022-11-02T00:07:53;98625.44;;;7.66;100.00
75717;BME280;64333;50.138;14.332;2022-11-02T00:10:20;98615.88;;;7.71;100.00
75717;BME280;64333;50.138;14.332;2022-11-02T00:12:46;98616.75;;;7.71;100.00
75717;BME280;64333;50.138;14.332;2022-11-02T00:15:12;98626.00;;;7.77;100.00
75717;BME280;64333;50.138;14.332;2022-11-02T00:17:43;98618.19;;;7.80;100.00
75717;BME280;64333;50.138;14.332;2022-11-02T00:20:10;98628.38;;;7.84;100.00
75717;BME280;64333;50.138;14.332;2022-11-02T00:22:36;98617.34;;;8.10;100.00
75717;BME280;64333;50.138;14.332;2022-11-02T00:25:03;98617.97;;;8.19;100.00
75717;BME280;64333;50.138;14.332;2022-11-02T00:27:30;98623.81;;;8.24;100.00
75717;BME280;64333;50.138;14.332;2022-11-02T00:29:57;98634.91;;;8.26;100.00
75717;BME280;64333;50.138;14.332;2022-11-02T00:32:24;98629.09;;;8.20;100.00
75717;BME280;64333;50.138;14.332;2022-11-02T00:34:49;98632.31;;;8.55;100.00
75717;BME280;64333;50.138;14.332;2022-11-02T00:37:14;98617.41;;;8.65;100.00
75717;BME280;64333;50.138;14.332;2022-11-02T00:39:40;98618.50;;;8.58;100.00
75717;BME280;64333;50.138;14.332;2022-11-02T00:42:05;98631.47;;;8.55;100.00
75717;BME280;64333;50.138;14.332;2022-11-02T00:44:31;98633.81;;;8.35;100.00
75717;BME280;64333;50.138;14.332;2022-11-02T00:46:56;98645.09;;;7.99;100.00
75717;BME280;64333;50.138;14.332;2022-11-02T00:49:21;98631.72;;;7.56;100.00
75717;BME280;64333;50.138;14.332;2022-11-02T00:51:47;98633.34;;;7.26;100.00
75717;BME280;64333;50.138;14.332;2022-11-02T00:54:12;98633.97;;;7.01;100.00
75717;BME280;64333;50.138;14.332;2022-11-02T00:56:37;98640.22;;;6.91;100.00
75717;BME280;64333;50.138;14.332;2022-11-02T00:59:03;98630.72;;;6.94;100.00
75717;BME280;64333;50.138;14.332;2022-11-02T01:01:29;98623.16;;;6.88;100.00
75717;BME280;64333;50.138;14.332;2022-11-02T01:03:57;98635.56;;;7.06;100.00
75717;BME280;64333;50.138;14.332;2022-11-02T01:06:22;98629.94;;;7.26;100.00
75717;BME280;64333;50.138;14.332;2022-11-02T01:08:48;98639.13;;;7.36;100.00
75717;BME280;64333;50.138;14.332;2022-11-02T01:11:16;98633.56;;;7.17;100.00
75717;BME280;64333;50.138;14.332;2022-11-02T01:13:42;98628.66;;;6.75;100.00
75717;BME280;64333;50.138;14.332;2022-11-02T01:16:09;98639.97;;;6.66;100.00
75717;BME280;64333;50.138;14.332;2022-11-02T01:18:35;98639.47;;;6.51;100.00
75717;BME280;64333;50.138;14.332;2022-11-02T01:21:00;98630.44;;;6.33;100.00
75717;BME280;64333;50.138;14.332;2022-11-02T01:23:25;98628.88;;;6.28;100.00
75717;BME280;64333;50.138;14.332;2022-11-02T01:25:51;98626.44;;;6.22;100.00
75717;BME280;64333;50.138;14.332;2022-11-02T01:28:17;98628.91;;;6.25;100.00
75717;BME280;64333;50.138;14.332;2022-11-02T01:30:42;98626.88;;;6.40;100.00
75717;BME280;64333;50.138;14.332;2022-11-02T01:33:08;98621.03;;;6.70;100.00
75717;BME280;64333;50.138;14.332;2022-11-02T01:35:35;98631.72;;;6.89;100.00
75717;BME280;64333;50.138;14.332;2022-11-02T01:38:00;98622.91;;;6.99;100.00
75717;BME280;64333;50.138;14.332;2022-11-02T01:40:26;98629.72;;;7.00;100.00
75717;BME280;64333;50.138;14.332;2022-11-02T01:42:51;98626.75;;;6.83;100.00
75717;BME280;64333;50.138;14.332;2022-11-02T01:45:17;98623.19;;;6.87;100.00
75717;BME280;64333;50.138;14.332;2022-11-02T01:47:45;98619.03;;;6.83;100.00
75717;BME280;64333;50.138;14.332;2022-11-02T01:50:15;98622.81;;;6.67;100.00
75717;BME280;64333;50.138;14.332;2022-11-02T01:52:43;98621.50;;;6.51;100.00
75717;BME280;64333;50.138;14.332;2022-11-02T01:55:12;98630.81;;;6.55;100.00
75717;BME280;64333;50.138;14.332;2022-11-02T01:57:43;98630.75;;;6.58;100.00
75717;BME280;64333;50.138;14.332;2022-11-02T02:00:12;98626.63;;;6.51;100.00
75717;BME280;64333;50.138;14.332;2022-11-02T02:02:42;98627.69;;;6.41;100.00
75717;BME280;64333;50.138;14.332;2022-11-02T02:05:12;98619.31;;;6.33;100.00
75717;BME280;64333;50.138;14.332;2022-11-02T02:07:38;98613.53;;;6.25;100.00
75717;BME280;64333;50.138;14.332;2022-11-02T02:10:06;98613.91;;;6.07;100.00
75717;BME280;64333;50.138;14.332;2022-11-02T02:12:32;98631.38;;;5.90;100.00
75717;BME280;64333;50.138;14.332;2022-11-02T02:14:58;98623.19;;;5.70;100.00
75717;BME280;64333;50.138;14.332;2022-11-02T02:26:06;98622.84;;;5.42;100.00
75717;BME280;64333;50.138;14.332;2022-11-02T02:28:48;98629.03;;;5.32;100.00
75717;BME280;64333;50.138;14.332;2022-11-02T02:31:28;98635.06;;;5.27;100.00
75717;BME280;64333;50.138;14.332;2022-11-02T02:36:44;98628.13;;;5.35;100.00
75717;BME280;64333;50.138;14.332;2022-11-02T02:39:12;98621.97;;;5.43;100.00
75717;BME280;64333;50.138;14.332;2022-11-02T02:41:45;98611.78;;;5.40;100.00
75717;BME280;64333;50.138;14.332;2022-11-02T02:44:17;98605.91;;;5.34;100.00
75717;BME280;64333;50.138;14.332;2022-11-02T02:47:09;98600.00;;;5.30;100.00
75717;BME280;64333;50.138;14.332;2022-11-02T02:49:41;98616.16;;;5.35;100.00
75717;BME280;64333;50.138;14.332;2022-11-02T02:52:08;98599.13;;;5.33;100.00
75717;BME280;64333;50.138;14.332;2022-11-02T02:54:40;98615.28;;;5.36;100.00
75717;BME280;64333;50.138;14.332;2022-11-02T02:57:12;98621.25;;;5.35;100.00
75717;BME280;64333;50.138;14.332;2022-11-02T02:59:43;98623.84;;;5.34;100.00
75717;BME280;64333;50.138;14.332;2022-11-02T03:02:31;98623.03;;;5.32;100.00
75717;BME280;64333;50.138;14.332;2022-11-02T03:04:57;98624.69;;;5.34;100.00
75717;BME280;64333;50.138;14.332;2022-11-02T03:07:30;98634.97;;;5.33;100.00
75717;BME280;64333;50.138;14.332;2022-11-02T03:10:42;98643.59;;;5.29;100.00
75717;BME280;64333;50.138;14.332;2022-11-02T03:16:12;98642.44;;;5.45;100.00
75717;BME280;64333;50.138;14.332;2022-11-02T03:18:51;98650.06;;;5.48;100.00
75717;BME280;64333;50.138;14.332;2022-11-02T03:24:04;98628.47;;;5.61;100.00
75717;BME280;64333;50.138;14.332;2022-11-02T03:26:47;98642.03;;;5.66;100.00
75717;BME280;64333;50.138;14.332;2022-11-02T03:29:37;98643.13;;;5.53;100.00
75717;BME280;64333;50.138;14.332;2022-11-02T03:32:29;98648.47;;;5.41;100.00
75717;BME280;64333;50.138;14.332;2022-11-02T03:35:02;98648.47;;;5.41;100.00
75717;BME280;64333;50.138;14.332;2022-11-02T03:37:34;98655.91;;;5.56;100.00
75717;BME280;64333;50.138;14.332;2022-11-02T03:42:31;98649.81;;;5.63;100.00
75717;BME280;64333;50.138;14.332;2022-11-02T03:45:03;98647.97;;;5.68;100.00
75717;BME280;64333;50.138;14.332;2022-11-02T03:47:32;98650.50;;;5.69;100.00
75717;BME280;64333;50.138;14.332;2022-11-02T03:49:59;98664.22;;;5.68;100.00
75717;BME280;64333;50.138;14.332;2022-11-02T03:52:28;98672.69;;;5.70;100.00
75717;BME280;64333;50.138;14.332;2022-11-02T03:55:03;98637.72;;;5.68;100.00
75717;BME280;64333;50.138;14.332;2022-11-02T03:57:43;98670.91;;;5.74;100.00
75717;BME280;64333;50.138;14.332;2022-11-02T04:00:18;98665.78;;;5.75;100.00
75717;BME280;64333;50.138;14.332;2022-11-02T04:02:47;98672.53;;;5.81;100.00
75717;BME280;64333;50.138;14.332;2022-11-02T04:05:42;98663.78;;;5.92;100.00
75717;BME280;64333;50.138;14.332;2022-11-02T04:08:26;98665.25;;;6.04;100.00
75717;BME280;64333;50.138;14.332;2022-11-02T04:11:22;98670.56;;;6.36;100.00
75717;BME280;64333;50.138;14.332;2022-11-02T04:14:06;98668.22;;;7.01;100.00
75717;BME280;64333;50.138;14.332;2022-11-02T04:16:50;98664.25;;;7.23;100.00
75717;BME280;64333;50.138;14.332;2022-11-02T04:19:35;98679.91;;;7.48;100.00
75717;BME280;64333;50.138;14.332;2022-11-02T04:22:00;98661.69;;;7.57;100.00
75717;BME280;64333;50.138;14.332;2022-11-02T04:24:44;98679.59;;;7.92;100.00
75717;BME280;64333;50.138;14.332;2022-11-02T04:27:28;98664.88;;;7.97;100.00
75717;BME280;64333;50.138;14.332;2022-11-02T04:29:54;98683.13;;;8.20;100.00
75717;BME280;64333;50.138;14.332;2022-11-02T04:32:19;98673.09;;;8.40;100.00
75717;BME280;64333;50.138;14.332;2022-11-02T04:35:03;98681.06;;;8.60;100.00
75717;BME280;64333;50.138;14.332;2022-11-02T04:37:29;98659.50;;;8.64;100.00
75717;BME280;64333;50.138;14.332;2022-11-02T04:40:13;98670.00;;;8.85;100.00
75717;BME280;64333;50.138;14.332;2022-11-02T04:42:39;98682.38;;;9.02;100.00
75717;BME280;64333;50.138;14.332;2022-11-02T04:45:04;98681.28;;;9.09;100.00
75717;BME280;64333;50.138;14.332;2022-11-02T04:47:30;98666.72;;;9.08;100.00
75717;BME280;64333;50.138;14.332;2022-11-02T04:49:55;98666.47;;;9.15;100.00
75717;BME280;64333;50.138;14.332;2022-11-02T04:52:20;98669.09;;;9.14;100.00
75717;BME280;64333;50.138;14.332;2022-11-02T04:54:46;98669.53;;;9.00;100.00
75717;BME280;64333;50.138;14.332;2022-11-02T04:57:11;98669.63;;;8.70;100.00
75717;BME280;64333;50.138;14.332;2022-11-02T04:59:36;98666.91;;;8.74;100.00
75717;BME280;64333;50.138;14.332;2022-11-02T05:02:02;98653.28;;;8.71;100.00
75717;BME280;64333;50.138;14.332;2022-11-02T05:04:27;98664.03;;;8.57;100.00
75717;BME280;64333;50.138;14.332;2022-11-02T05:06:52;98665.09;;;8.20;100.00
75717;BME280;64333;50.138;14.332;2022-11-02T05:09:18;98668.25;;;7.99;100.00
75717;BME280;64333;50.138;14.332;2022-11-02T05:11:43;98673.56;;;7.93;100.00
75717;BME280;64333;50.138;14.332;2022-11-02T05:14:08;98669.44;;;7.87;100.00
75717;BME280;64333;50.138;14.332;2022-11-02T05:16:34;98668.50;;;7.90;100.00
75717;BME280;64333;50.138;14.332;2022-11-02T05:18:59;98668.88;;;8.07;100.00
75717;BME280;64333;50.138;14.332;2022-11-02T05:21:24;98670.28;;;8.18;100.00
75717;BME280;64333;50.138;14.332;2022-11-02T05:23:50;98661.38;;;8.31;100.00
75717;BME280;64333;50.138;14.332;2022-11-02T05:26:15;98667.78;;;8.46;100.00
75717;BME280;64333;50.138;14.332;2022-11-02T05:28:40;98664.94;;;8.55;100.00
75717;BME280;64333;50.138;14.332;2022-11-02T05:31:06;98672.50;;;8.61;100.00
75717;BME280;64333;50.138;14.332;2022-11-02T05:33:32;98669.63;;;8.70;100.00
75717;BME280;64333;50.138;14.332;2022-11-02T05:35:58;98673.94;;;8.69;100.00
75717;BME280;64333;50.138;14.332;2022-11-02T05:38:24;98683.16;;;8.76;100.00
75717;BME280;64333;50.138;14.332;2022-11-02T05:40:54;98679.03;;;8.71;100.00
75717;BME280;64333;50.138;14.332;2022-11-02T05:43:20;98674.03;;;8.66;100.00
75717;BME280;64333;50.138;14.332;2022-11-02T05:45:56;98674.00;;;8.68;100.00
75717;BME280;64333;50.138;14.332;2022-11-02T05:48:23;98686.94;;;8.65;100.00
75717;BME280;64333;50.138;14.332;2022-11-02T05:50:48;98681.97;;;8.59;100.00
75717;BME280;64333;50.138;14.332;2022-11-02T05:53:14;98686.38;;;8.55;100.00
75717;BME280;64333;50.138;14.332;2022-11-02T05:55:40;98679.69;;;8.50;100.00
75717;BME280;64333;50.138;14.332;2022-11-02T05:58:05;98695.56;;;8.64;100.00
75717;BME280;64333;50.138;14.332;2022-11-02T06:00:30;98692.97;;;8.64;100.00
75717;BME280;64333;50.138;14.332;2022-11-02T06:02:56;98691.19;;;8.66;100.00
75717;BME280;64333;50.138;14.332;2022-11-02T06:05:23;98692.28;;;8.86;100.00
75717;BME280;64333;50.138;14.332;2022-11-02T06:07:48;98693.13;;;9.14;100.00
75717;BME280;64333;50.138;14.332;2022-11-02T06:10:14;98685.28;;;9.43;100.00
75717;BME280;64333;50.138;14.332;2022-11-02T06:12:39;98688.16;;;9.85;100.00
75717;BME280;64333;50.138;14.332;2022-11-02T06:15:05;98678.75;;;10.08;100.00
75717;BME280;64333;50.138;14.332;2022-11-02T06:17:38;98683.19;;;10.05;100.00
75717;BME280;64333;50.138;14.332;2022-11-02T06:20:04;98693.31;;;9.85;100.00
75717;BME280;64333;50.138;14.332;2022-11-02T06:22:29;98687.94;;;9.42;100.00
75717;BME280;64333;50.138;14.332;2022-11-02T06:24:55;98697.50;;;9.38;100.00
75717;BME280;64333;50.138;14.332;2022-11-02T06:27:20;98690.66;;;9.37;100.00
75717;BME280;64333;50.138;14.332;2022-11-02T06:29:46;98699.66;;;10.25;100.00
75717;BME280;64333;50.138;14.332;2022-11-02T06:32:11;98688.75;;;11.07;96.75
75717;BME280;64333;50.138;14.332;2022-11-02T06:34:36;98703.69;;;12.24;89.87
75717;BME280;64333;50.138;14.332;2022-11-02T06:37:02;98707.38;;;12.75;86.78
75717;BME280;64333;50.138;14.332;2022-11-02T06:39:27;98708.16;;;13.31;83.23
75717;BME280;64333;50.138;14.332;2022-11-02T06:41:52;98704.69;;;13.32;81.90
75717;BME280;64333;50.138;14.332;2022-11-02T06:44:18;98703.56;;;14.06;80.04
75717;BME280;64333;50.138;14.332;2022-11-02T06:46:43;98696.56;;;14.40;77.38
75717;BME280;64333;50.138;14.332;2022-11-02T06:49:08;98714.34;;;14.80;78.43
75717;BME280;64333;50.138;14.332;2022-11-02T06:51:34;98705.63;;;14.97;74.53
75717;BME280;64333;50.138;14.332;2022-11-02T06:53:59;98711.63;;;14.97;74.45
75717;BME280;64333;50.138;14.332;2022-11-02T06:56:25;98721.22;;;15.43;71.27
75717;BME280;64333;50.138;14.332;2022-11-02T06:58:50;98707.91;;;15.63;71.65
75717;BME280;64333;50.138;14.332;2022-11-02T07:01:15;98722.59;;;15.94;70.86
75717;BME280;64333;50.138;14.332;2022-11-02T07:03:41;98721.34;;;16.72;67.81
75717;BME280;64333;50.138;14.332;2022-11-02T07:06:06;98725.00;;;17.10;64.64
75717;BME280;64333;50.138;14.332;2022-11-02T07:08:32;98728.69;;;17.34;65.94
75717;BME280;64333;50.138;14.332;2022-11-02T07:10:57;98733.56;;;18.18;62.15
75717;BME280;64333;50.138;14.332;2022-11-02T07:13:23;98723.06;;;17.93;60.80
75717;BME280;64333;50.138;14.332;2022-11-02T07:15:52;98732.34;;;17.97;61.08
75717;BME280;64333;50.138;14.332;2022-11-02T07:18:18;98736.94;;;18.45;58.81
75717;BME280;64333;50.138;14.332;2022-11-02T07:20:43;98738.41;;;18.49;58.49
75717;BME280;64333;50.138;14.332;2022-11-02T07:23:09;98731.13;;;19.51;58.07
75717;BME280;64333;50.138;14.332;2022-11-02T07:25:35;98728.94;;;19.45;55.39
75717;BME280;64333;50.138;14.332;2022-11-02T07:28:01;98734.50;;;20.11;53.80
75717;BME280;64333;50.138;14.332;2022-11-02T07:30:28;98745.88;;;20.44;53.47
75717;BME280;64333;50.138;14.332;2022-11-02T07:32:54;98752.81;;;20.56;52.32
75717;BME280;64333;50.138;14.332;2022-11-02T07:35:20;98747.31;;;19.56;53.41
75717;BME280;64333;50.138;14.332;2022-11-02T07:37:57;98755.13;;;19.45;54.04
75717;BME280;64333;50.138;14.332;2022-11-02T07:40:23;98747.44;;;20.47;51.04
75717;BME280;64333;50.138;14.332;2022-11-02T07:42:48;98759.25;;;19.83;51.03
75717;BME280;64333;50.138;14.332;2022-11-02T07:45:13;98760.22;;;19.82;53.18
75717;BME280;64333;50.138;14.332;2022-11-02T07:47:46;98758.72;;;21.15;49.28
75717;BME280;64333;50.138;14.332;2022-11-02T07:50:12;98753.81;;;20.66;49.17
75717;BME280;64333;50.138;14.332;2022-11-02T07:52:49;98763.72;;;20.85;49.73
75717;BME280;64333;50.138;14.332;2022-11-02T07:55:15;98764.63;;;20.05;50.77
75717;BME280;64333;50.138;14.332;2022-11-02T07:57:41;98754.66;;;20.89;48.75
75717;BME280;64333;50.138;14.332;2022-11-02T08:00:09;98762.38;;;20.12;50.85
75717;BME280;64333;50.138;14.332;2022-11-02T08:02:34;98762.97;;;20.50;49.95
75717;BME280;64333;50.138;14.332;2022-11-02T08:05:00;98764.91;;;19.90;50.77
75717;BME280;64333;50.138;14.332;2022-11-02T08:07:25;98755.84;;;19.94;50.29
75717;BME280;64333;50.138;14.332;2022-11-02T08:09:50;98767.31;;;20.27;49.08
75717;BME280;64333;50.138;14.332;2022-11-02T08:12:16;98771.50;;;19.36;51.03
75717;BME280;64333;50.138;14.332;2022-11-02T08:14:41;98769.16;;;19.20;52.15
75717;BME280;64333;50.138;14.332;2022-11-02T08:17:07;98780.63;;;19.90;50.19
75717;BME280;64333;50.138;14.332;2022-11-02T08:19:32;98778.97;;;20.58;48.52
75717;BME280;64333;50.138;14.332;2022-11-02T08:21:57;98786.66;;;21.16;46.84
75717;BME280;64333;50.138;14.332;2022-11-02T08:24:23;98781.88;;;21.21;46.48
75717;BME280;64333;50.138;14.332;2022-11-02T08:26:48;98789.34;;;22.12;44.18
75717;BME280;64333;50.138;14.332;2022-11-02T08:29:14;98784.22;;;21.68;44.38
75717;BME280;64333;50.138;14.332;2022-11-02T08:31:39;98783.88;;;22.56;43.52
75717;BME280;64333;50.138;14.332;2022-11-02T08:34:04;98780.19;;;21.42;45.33
75717;BME280;64333;50.138;14.332;2022-11-02T08:36:30;98783.56;;;20.89;45.68
75717;BME280;64333;50.138;14.332;2022-11-02T08:38:55;98783.00;;;21.61;43.97
75717;BME280;64333;50.138;14.332;2022-11-02T08:41:21;98786.16;;;21.97;44.12
75717;BME280;64333;50.138;14.332;2022-11-02T08:43:46;98784.63;;;21.19;45.99
75717;BME280;64333;50.138;14.332;2022-11-02T08:46:12;98791.44;;;21.44;44.80
75717;BME280;64333;50.138;14.332;2022-11-02T08:48:37;98780.03;;;22.28;42.69
75717;BME280;64333;50.138;14.332;2022-11-02T08:51:02;98774.75;;;22.60;41.97
75717;BME280;64333;50.138;14.332;2022-11-02T08:53:29;98790.81;;;22.57;41.82
75717;BME280;64333;50.138;14.332;2022-11-02T08:55:58;98780.91;;;23.00;41.21
75717;BME280;64333;50.138;14.332;2022-11-02T08:58:23;98775.53;;;22.51;41.03
75717;BME280;64333;50.138;14.332;2022-11-02T09:00:51;98769.00;;;24.12;38.79
75717;BME280;64333;50.138;14.332;2022-11-02T09:03:17;98777.97;;;23.63;39.45
75717;BME280;64333;50.138;14.332;2022-11-02T09:05:45;98787.63;;;23.43;40.14
75717;BME280;64333;50.138;14.332;2022-11-02T09:08:20;98784.97;;;24.39;38.35
75717;BME280;64333;50.138;14.332;2022-11-02T09:10:48;98776.72;;;25.17;37.27
75717;BME280;64333;50.138;14.332;2022-11-02T09:13:14;98788.38;;;26.22;34.73
75717;BME280;64333;50.138;14.332;2022-11-02T09:15:41;98790.25;;;24.39;36.04
75717;BME280;64333;50.138;14.332;2022-11-02T09:18:07;98784.56;;;23.87;37.40
75717;BME280;64333;50.138;14.332;2022-11-02T09:20:33;98775.53;;;23.41;39.06
75717;BME280;64333;50.138;14.332;2022-11-02T09:22:59;98777.22;;;23.12;39.13
75717;BME280;64333;50.138;14.332;2022-11-02T09:25:24;98781.78;;;22.80;38.92
75717;BME280;64333;50.138;14.332;2022-11-02T09:27:54;98777.78;;;21.92;41.77
75717;BME280;64333;50.138;14.332;2022-11-02T09:30:20;98771.81;;;22.01;42.18
75717;BME280;64333;50.138;14.332;2022-11-02T09:33:04;98770.28;;;22.40;41.23
75717;BME280;64333;50.138;14.332;2022-11-02T09:35:32;98775.28;;;22.22;41.33
75717;BME280;64333;50.138;14.332;2022-11-02T09:37:58;98770.56;;;22.37;41.29
75717;BME280;64333;50.138;14.332;2022-11-02T09:40:35;98775.03;;;22.25;40.83
75717;BME280;64333;50.138;14.332;2022-11-02T09:45:45;98766.41;;;23.15;39.98
75717;BME280;64333;50.138;14.332;2022-11-02T09:48:24;98770.59;;;23.17;39.11
75717;BME280;64333;50.138;14.332;2022-11-02T09:50:57;98784.19;;;22.92;40.44
75717;BME280;64333;50.138;14.332;2022-11-02T09:53:55;98779.09;;;23.70;38.74
75717;BME280;64333;50.138;14.332;2022-11-02T09:56:23;98772.81;;;23.61;38.12
75717;BME280;64333;50.138;14.332;2022-11-02T09:58:56;98772.50;;;24.03;37.70
75717;BME280;64333;50.138;14.332;2022-11-02T10:01:27;98775.13;;;24.03;37.54
75717;BME280;64333;50.138;14.332;2022-11-02T10:04:20;98782.19;;;24.31;36.30
75717;BME280;64333;50.138;14.332;2022-11-02T10:07:14;98763.84;;;24.39;37.41
75717;BME280;64333;50.138;14.332;2022-11-02T10:12:23;98769.97;;;23.92;38.01
75717;BME280;64333;50.138;14.332;2022-11-02T10:17:23;98780.78;;;24.65;37.08
75717;BME280;64333;50.138;14.332;2022-11-02T10:19:54;98773.16;;;24.15;37.16
75717;BME280;64333;50.138;14.332;2022-11-02T10:22:24;98766.81;;;22.80;39.67
75717;BME280;64333;50.138;14.332;2022-11-02T10:24:52;98776.03;;;25.24;35.54
75717;BME280;64333;50.138;14.332;2022-11-02T10:27:26;98774.13;;;22.15;40.26
75717;BME280;64333;50.138;14.332;2022-11-02T10:30:05;98754.63;;;21.33;43.25
75717;BME280;64333;50.138;14.332;2022-11-02T10:32:34;98766.75;;;19.05;48.12
75717;BME280;64333;50.138;14.332;2022-11-02T10:35:03;98778.41;;;18.12;50.73
75717;BME280;64333;50.138;14.332;2022-11-02T10:51:20;98769.84;;;15.88;59.02
75717;BME280;64333;50.138;14.332;2022-11-02T10:53:48;98782.50;;;15.64;60.09
75717;BME280;64333;50.138;14.332;2022-11-02T10:56:23;98778.53;;;15.73;60.26
75717;BME280;64333;50.138;14.332;2022-11-02T10:58:59;98774.59;;;15.66;59.47
75717;BME280;64333;50.138;14.332;2022-11-02T11:01:27;98781.22;;;15.87;59.92
75717;BME280;64333;50.138;14.332;2022-11-02T11:04:02;98766.50;;;16.15;58.85
75717;BME280;64333;50.138;14.332;2022-11-02T11:06:35;98778.41;;;15.76;58.72
75717;BME280;64333;50.138;14.332;2022-11-02T11:09:15;98766.88;;;15.64;59.88
75717;BME280;64333;50.138;14.332;2022-11-02T11:11:57;98760.34;;;15.26;60.58
75717;BME280;64333;50.138;14.332;2022-11-02T11:14:25;98768.22;;;15.25;61.26
75717;BME280;64333;50.138;14.332;2022-11-02T11:16:57;98762.47;;;15.35;61.38
75717;BME280;64333;50.138;14.332;2022-11-02T11:22:29;98764.53;;;15.13;62.26
75717;BME280;64333;50.138;14.332;2022-11-02T11:25:31;98774.28;;;15.25;62.32
75717;BME280;64333;50.138;14.332;2022-11-02T11:27:58;98771.56;;;15.27;62.54
75717;BME280;64333;50.138;14.332;2022-11-02T11:32:57;98756.22;;;15.22;62.35
75717;BME280;64333;50.138;14.332;2022-11-02T11:35:28;98758.66;;;14.94;63.42
75717;BME280;64333;50.138;14.332;2022-11-02T11:37:58;98758.28;;;14.85;64.07
75717;BME280;64333;50.138;14.332;2022-11-02T11:40:26;98755.06;;;15.12;63.29
75717;BME280;64333;50.138;14.332;2022-11-02T11:42:55;98764.72;;;15.41;61.99
75717;BME280;64333;50.138;14.332;2022-11-02T11:45:29;98745.00;;;15.22;62.16
75717;BME280;64333;50.138;14.332;2022-11-02T11:50:46;98748.59;;;15.04;62.02
75717;BME280;64333;50.138;14.332;2022-11-02T11:55:51;98752.38;;;14.98;63.29
75717;BME280;64333;50.138;14.332;2022-11-02T11:58:21;98746.31;;;15.13;62.49
75717;BME280;64333;50.138;14.332;2022-11-02T12:01:25;98739.66;;;15.08;61.81
75717;BME280;64333;50.138;14.332;2022-11-02T12:03:54;98744.22;;;15.20;63.11
75717;BME280;64333;50.138;14.332;2022-11-02T12:12:03;98741.28;;;15.10;63.30
75717;BME280;64333;50.138;14.332;2022-11-02T12:30:59;98733.63;;;15.54;59.64
75717;BME280;64333;50.138;14.332;2022-11-02T12:39:00;98715.00;;;17.57;54.34
75717;BME280;64333;50.138;14.332;2022-11-02T12:47:19;98717.44;;;16.65;54.22
75717;BME280;64333;50.138;14.332;2022-11-02T12:52:52;98712.84;;;15.97;56.51
75717;BME280;64333;50.138;14.332;2022-11-02T12:55:24;98717.78;;;15.58;56.87
75717;BME280;64333;50.138;14.332;2022-11-02T12:57:57;98713.75;;;15.37;56.72
75717;BME280;64333;50.138;14.332;2022-11-02T13:00:23;98717.28;;;15.36;58.10
75717;BME280;64333;50.138;14.332;2022-11-02T13:05:24;98732.47;;;15.59;57.23
75717;BME280;64333;50.138;14.332;2022-11-02T13:08:10;98736.75;;;15.45;58.29
75717;BME280;64333;50.138;14.332;2022-11-02T13:11:06;98733.84;;;15.35;58.18
75717;BME280;64333;50.138;14.332;2022-11-02T13:13:38;98729.13;;;15.26;57.95
75717;BME280;64333;50.138;14.332;2022-11-02T13:16:07;98720.38;;;15.12;58.21
75717;BME280;64333;50.138;14.332;2022-11-02T13:18:48;98727.09;;;15.16;58.53
75717;BME280;64333;50.138;14.332;2022-11-02T13:21:18;98715.16;;;15.27;58.55
75717;BME280;64333;50.138;14.332;2022-11-02T13:23:55;98703.56;;;15.17;57.91
75717;BME280;64333;50.138;14.332;2022-11-02T13:26:42;98711.31;;;15.19;58.18
75717;BME280;64333;50.138;14.332;2022-11-02T13:29:26;98724.84;;;15.25;58.29
75717;BME280;64333;50.138;14.332;2022-11-02T13:31:57;98721.31;;;15.26;58.77
75717;BME280;64333;50.138;14.332;2022-11-02T13:34:34;98725.84;;;15.07;58.50
75717;BME280;64333;50.138;14.332;2022-11-02T13:37:05;98724.91;;;15.08;59.27
75717;BME280;64333;50.138;14.332;2022-11-02T13:39:36;98733.13;;;15.16;58.70
75717;BME280;64333;50.138;14.332;2022-11-02T13:50:22;98748.84;;;14.67;61.24
75717;BME280;64333;50.138;14.332;2022-11-02T13:52:55;98742.72;;;14.68;61.56
75717;BME280;64333;50.138;14.332;2022-11-02T13:55:24;98748.44;;;14.59;62.81
75717;BME280;64333;50.138;14.332;2022-11-02T13:57:54;98743.03;;;14.46;62.23
75717;BME280;64333;50.138;14.332;2022-11-02T14:00:28;98754.34;;;14.45;62.54
75717;BME280;64333;50.138;14.332;2022-11-02T14:03:11;98754.94;;;14.50;62.64
75717;BME280;64333;50.138;14.332;2022-11-02T14:05:47;98752.50;;;14.80;60.75
75717;BME280;64333;50.138;14.332;2022-11-02T14:08:20;98735.69;;;15.33;59.09
75717;BME280;64333;50.138;14.332;2022-11-02T14:21:45;98756.72;;;17.18;52.44
75717;BME280;64333;50.138;14.332;2022-11-02T14:26:59;98743.78;;;16.17;55.67
75717;BME280;64333;50.138;14.332;2022-11-02T14:32:39;98747.53;;;16.13;56.43
75717;BME280;64333;50.138;14.332;2022-11-02T14:38:22;98752.41;;;16.33;53.97
75717;BME280;64333;50.138;14.332;2022-11-02T14:43:43;98754.03;;;16.06;53.32
75717;BME280;64333;50.138;14.332;2022-11-02T14:46:35;98749.00;;;15.88;54.06
75717;BME280;64333;50.138;14.332;2022-11-02T14:49:04;98754.84;;;15.77;54.40
75717;BME280;64333;50.138;14.332;2022-11-02T14:51:39;98739.34;;;15.60;54.59
75717;BME280;64333;50.138;14.332;2022-11-02T14:54:14;98748.59;;;15.50;54.17
75717;BME280;64333;50.138;14.332;2022-11-02T14:57:03;98758.81;;;15.22;54.98
75717;BME280;64333;50.138;14.332;2022-11-02T14:59:37;98756.88;;;14.95;55.83
75717;BME280;64333;50.138;14.332;2022-11-02T15:02:08;98760.56;;;14.58;57.84
75717;BME280;64333;50.138;14.332;2022-11-02T15:04:46;98775.66;;;14.18;58.81
75717;BME280;64333;50.138;14.332;2022-11-02T15:07:19;98760.22;;;13.81;59.79